createdAt,value
2018-01-26T00:00:15.639Z,4.82
2018-01-26T00:02:43.906Z,4.40
2018-01-26T00:05:11.423Z,4.80
2018-01-26T00:07:38.921Z,5.35
2018-01-26T00:10:06.425Z,4.95
2018-01-26T00:12:33.945Z,5.28
2018-01-26T00:15:01.456Z,5.40
2018-01-26T00:17:28.953Z,5.37
2018-01-26T00:19:56.437Z,4.78
2018-01-26T00:22:24.716Z,5.18
2018-01-26T00:24:52.218Z,5.35
2018-01-26T00:27:19.754Z,5.40
2018-01-26T00:29:47.274Z,5.80
2018-01-26T00:32:14.787Z,4.45
2018-01-26T00:34:42.298Z,5.07
2018-01-26T00:37:09.835Z,5.68
2018-01-26T00:39:37.345Z,4.95
2018-01-26T00:42:05.613Z,4.35
2018-01-26T00:44:33.894Z,4.30
2018-01-26T00:47:02.206Z,4.62
2018-01-26T00:49:29.702Z,4.37
2018-01-26T00:51:57.252Z,4.80
2018-01-26T00:54:24.753Z,4.62
2018-01-26T00:56:53.009Z,4.70
2018-01-26T00:59:21.305Z,5.15
2018-01-26T01:01:48.821Z,4.25
2018-01-26T01:04:16.325Z,4.60
2018-01-26T01:06:43.818Z,4.57
2018-01-26T01:09:11.345Z,4.70
2018-01-26T01:11:38.844Z,4.78
2018-01-26T01:14:06.373Z,4.12
2018-01-26T01:16:33.873Z,4.32
2018-01-26T01:19:01.377Z,4.35
2018-01-26T01:21:28.918Z,4.82
2018-01-26T01:23:57.202Z,4.40
2018-01-26T01:26:25.477Z,4.10
2018-01-26T01:28:53.769Z,4.47
2018-01-26T01:31:21.255Z,4.47
2018-01-26T01:33:48.778Z,4.75
2018-01-26T01:36:17.049Z,3.53
2018-01-26T01:38:45.358Z,4.12
2018-01-26T01:41:12.854Z,4.20
2018-01-26T01:43:40.377Z,3.60
2018-01-26T01:46:07.874Z,4.60
2018-01-26T01:48:35.425Z,4.22
2018-01-26T01:51:02.930Z,3.87
2018-01-26T01:53:31.201Z,4.25
2018-01-26T01:55:59.472Z,3.62
2018-01-26T01:58:28.497Z,3.55
2018-01-26T02:00:55.996Z,3.28
2018-01-26T02:03:23.532Z,3.58
2018-01-26T02:05:51.042Z,3.25
2018-01-26T02:08:19.305Z,3.05
2018-01-26T02:10:46.813Z,3.95
2018-01-26T02:13:14.359Z,3.72
2018-01-26T02:15:41.872Z,3.90
2018-01-26T02:18:09.377Z,3.78
2018-01-26T02:20:36.891Z,4.22
2018-01-26T02:23:04.381Z,4.05
2018-01-26T02:25:40.662Z,3.92
2018-01-26T02:28:08.145Z,3.80
2018-01-26T02:30:35.686Z,4.00
2018-01-26T02:33:03.182Z,4.95
2018-01-26T02:35:30.722Z,4.32
2018-01-26T02:37:58.215Z,4.75
2018-01-26T02:40:25.733Z,4.40
2018-01-26T02:42:53.233Z,4.50
2018-01-26T02:45:20.757Z,3.90
2018-01-26T02:47:48.262Z,4.80
2018-01-26T02:50:16.553Z,4.18
2018-01-26T02:52:44.804Z,4.45
2018-01-26T02:55:12.331Z,4.30
2018-01-26T02:57:39.827Z,3.87
2018-01-26T03:00:07.362Z,3.90
2018-01-26T03:02:34.853Z,4.30
2018-01-26T03:05:03.128Z,3.97
2018-01-26T03:07:31.391Z,3.70
2018-01-26T03:09:58.941Z,4.35
2018-01-26T03:12:26.430Z,3.40
2018-01-26T03:14:54.719Z,3.72
2018-01-26T03:17:22.985Z,3.10
2018-01-26T03:19:51.253Z,3.50
2018-01-26T03:22:18.754Z,4.25
2018-01-26T03:24:46.262Z,3.00
2018-01-26T03:27:13.763Z,4.00
2018-01-26T03:29:41.305Z,3.37
2018-01-26T03:32:09.582Z,3.42
2018-01-26T03:34:37.859Z,3.90
2018-01-26T03:37:06.145Z,4.20
2018-01-26T03:39:33.665Z,4.03
2018-01-26T03:42:01.170Z,3.67
2018-01-26T03:44:28.677Z,4.30
2018-01-26T03:46:56.171Z,3.40
2018-01-26T03:49:24.455Z,4.50
2018-01-26T03:51:51.941Z,4.10
2018-01-26T03:54:19.452Z,4.03
2018-01-26T03:56:47.717Z,3.60
2018-01-26T03:59:15.248Z,3.90
2018-01-26T04:01:42.765Z,3.60
2018-01-26T04:04:11.046Z,3.53
2018-01-26T04:06:38.561Z,3.53
2018-01-26T04:09:06.074Z,3.75
2018-01-26T04:11:33.581Z,4.03
2018-01-26T04:14:01.089Z,4.15
2018-01-26T04:16:28.573Z,4.37
2018-01-26T04:18:56.062Z,4.43
2018-01-26T04:21:23.585Z,4.07
2018-01-26T04:23:51.073Z,3.83
2018-01-26T04:26:18.674Z,3.85
2018-01-26T04:28:46.198Z,3.75
2018-01-26T04:31:13.726Z,4.60
2018-01-26T04:33:41.221Z,3.58
2018-01-26T04:36:08.745Z,4.15
2018-01-26T04:38:36.262Z,3.78
2018-01-26T04:41:03.797Z,4.12
2018-01-26T04:43:31.293Z,3.62
2018-01-26T04:45:58.814Z,3.92
2018-01-26T04:48:26.310Z,3.65
2018-01-26T04:50:53.833Z,4.10
2018-01-26T04:53:21.327Z,4.00
2018-01-26T04:55:48.866Z,4.12
2018-01-26T04:58:17.153Z,4.37
2018-01-26T05:00:44.697Z,3.67
2018-01-26T05:03:12.213Z,4.10
2018-01-26T05:05:39.734Z,4.03
2018-01-26T05:08:07.996Z,3.33
2018-01-26T05:10:36.290Z,4.30
2018-01-26T05:13:04.558Z,4.03
2018-01-26T05:15:32.090Z,3.70
2018-01-26T05:17:59.581Z,3.65
2018-01-26T05:20:27.105Z,3.30
2018-01-26T05:22:54.593Z,4.15
2018-01-26T05:25:22.869Z,4.03
2018-01-26T05:27:51.148Z,4.05
2018-01-26T05:30:19.420Z,4.53
2018-01-26T05:32:47.733Z,4.00
2018-01-26T05:35:15.249Z,3.42
2018-01-26T05:37:43.542Z,3.40
2018-01-26T05:40:11.802Z,5.03
2018-01-26T05:42:39.314Z,4.20
2018-01-26T05:45:09.778Z,3.65
2018-01-26T05:47:37.285Z,4.03
2018-01-26T05:50:04.785Z,4.20
2018-01-26T05:52:32.310Z,3.85
2018-01-26T05:54:59.845Z,3.55
2018-01-26T05:57:28.131Z,4.18
2018-01-26T05:59:55.621Z,3.70
2018-01-26T06:02:23.136Z,4.35
2018-01-26T06:04:51.401Z,4.18
2018-01-26T06:07:19.678Z,3.67
2018-01-26T06:09:47.166Z,3.92
2018-01-26T06:12:14.652Z,3.83
2018-01-26T06:14:42.190Z,3.33
2018-01-26T06:17:09.700Z,3.72
2018-01-26T06:19:37.227Z,4.28
2018-01-26T06:22:04.730Z,4.72
2018-01-26T06:24:33.014Z,4.35
2018-01-26T06:27:01.284Z,5.00
2018-01-26T06:29:28.840Z,4.87
2018-01-26T06:31:56.452Z,5.43
2018-01-26T06:34:24.013Z,4.85
2018-01-26T06:36:51.590Z,4.87
2018-01-26T06:39:19.114Z,4.12
2018-01-26T06:41:46.614Z,5.78
2018-01-26T06:44:14.138Z,4.57
2018-01-26T06:46:41.658Z,5.35
2018-01-26T06:49:09.189Z,4.25
2018-01-26T06:51:36.689Z,4.40
2018-01-26T06:54:04.966Z,4.40
2018-01-26T06:56:32.504Z,4.22
2018-01-26T06:58:59.989Z,4.12
2018-01-26T07:01:27.520Z,3.85
2018-01-26T07:03:55.010Z,4.00
2018-01-26T07:06:23.331Z,3.72
2018-01-26T07:08:50.837Z,4.55
2018-01-26T07:11:19.153Z,3.95
2018-01-26T07:13:46.668Z,3.78
2018-01-26T07:16:14.173Z,4.32
2018-01-26T07:18:41.674Z,4.15
2018-01-26T07:21:09.228Z,4.15
2018-01-26T07:23:36.736Z,4.70
2018-01-26T07:26:04.286Z,4.57
2018-01-26T07:28:32.566Z,4.60
2018-01-26T07:31:00.866Z,4.62
2018-01-26T07:33:28.381Z,4.40
2018-01-26T07:35:55.913Z,4.72
2018-01-26T07:38:23.418Z,4.50
2018-01-26T07:40:51.690Z,4.55
2018-01-26T07:43:19.212Z,4.85
2018-01-26T07:45:46.739Z,4.80
2018-01-26T07:48:15.044Z,6.22
2018-01-26T07:50:42.588Z,5.95
2018-01-26T07:53:10.865Z,6.30
2018-01-26T07:55:38.353Z,6.25
2018-01-26T07:58:05.884Z,6.90
2018-01-26T08:00:33.377Z,7.37
2018-01-26T08:03:00.920Z,5.80
2018-01-26T08:05:28.413Z,7.45
2018-01-26T08:07:56.922Z,6.78
2018-01-26T08:10:24.415Z,7.03
2018-01-26T08:12:51.938Z,7.53
2018-01-26T08:15:19.470Z,7.55
2018-01-26T08:17:47.758Z,8.80
2018-01-26T08:20:16.018Z,9.55
2018-01-26T08:22:43.509Z,9.52
2018-01-26T08:25:11.042Z,10.15
2018-01-26T08:27:39.371Z,10.38
2018-01-26T08:30:06.906Z,10.75
2018-01-26T08:32:34.442Z,10.13
2018-01-26T08:35:02.725Z,10.20
2018-01-26T08:37:31.011Z,9.88
2018-01-26T08:39:58.558Z,10.48
2018-01-26T08:42:26.831Z,9.30
2018-01-26T08:44:55.157Z,9.38
2018-01-26T08:47:22.669Z,9.10
2018-01-26T08:49:50.947Z,8.77
2018-01-26T08:52:19.243Z,8.70
2018-01-26T08:54:46.747Z,9.07
2018-01-26T08:57:14.266Z,9.23
2018-01-26T08:59:41.765Z,10.02
2018-01-26T09:02:09.308Z,10.30
2018-01-26T09:04:36.842Z,10.30
2018-01-26T09:07:04.385Z,11.32
2018-01-26T09:09:32.657Z,11.12
2018-01-26T09:12:00.957Z,12.25
2018-01-26T09:14:28.459Z,11.85
2018-01-26T09:16:55.983Z,12.55
2018-01-26T09:19:23.473Z,12.45
2018-01-26T09:21:51.015Z,12.68
2018-01-26T09:24:18.523Z,12.32
2018-01-26T09:26:46.801Z,13.27
2018-01-26T09:29:15.078Z,23.12
2018-01-26T09:31:43.351Z,35.28
2018-01-26T09:34:10.868Z,20.48
2018-01-26T09:36:38.389Z,16.95
2018-01-26T09:39:05.917Z,17.92
2018-01-26T09:41:33.430Z,11.10
2018-01-26T09:44:00.963Z,9.43
2018-01-26T09:46:28.457Z,8.48
2018-01-26T09:48:55.986Z,8.02
2018-01-26T09:51:23.484Z,7.15
2018-01-26T09:53:51.005Z,7.18
2018-01-26T09:56:18.581Z,7.47
2018-01-26T09:58:46.094Z,7.37
2018-01-26T10:01:13.617Z,8.85
2018-01-26T10:03:41.122Z,8.65
2018-01-26T10:06:09.425Z,8.90
2018-01-26T10:08:36.925Z,9.57
2018-01-26T10:11:04.466Z,8.52
2018-01-26T10:13:31.975Z,10.23
2018-01-26T10:15:59.526Z,10.20
2018-01-26T10:18:27.021Z,9.25
2018-01-26T10:20:55.324Z,10.90
2018-01-26T10:23:22.822Z,9.52
2018-01-26T10:25:51.131Z,8.32
2018-01-26T10:28:19.403Z,9.00
2018-01-26T10:30:47.713Z,9.70
2018-01-26T10:33:15.209Z,8.95
2018-01-26T10:35:42.738Z,11.18
2018-01-26T10:38:10.250Z,14.60
2018-01-26T10:40:38.537Z,13.32
2018-01-26T10:43:06.054Z,10.80
2018-01-26T10:45:33.569Z,9.75
2018-01-26T10:48:01.156Z,10.13
2018-01-26T10:50:28.652Z,11.00
2018-01-26T10:52:56.210Z,10.10
2018-01-26T10:55:23.709Z,9.40
2018-01-26T10:57:51.246Z,9.27
2018-01-26T11:00:19.506Z,9.95
2018-01-26T11:02:47.029Z,10.63
2018-01-26T11:05:15.379Z,9.60
2018-01-26T11:07:42.906Z,10.02
2018-01-26T11:10:10.415Z,9.50
2018-01-26T11:12:37.934Z,10.55
2018-01-26T11:15:06.217Z,10.90
2018-01-26T11:17:34.510Z,10.80
2018-01-26T11:20:02.019Z,9.90
2018-01-26T11:22:29.521Z,10.45
2018-01-26T11:24:57.037Z,10.43
2018-01-26T11:27:24.538Z,9.32
2018-01-26T11:29:52.089Z,10.93
2018-01-26T11:32:19.601Z,10.95
2018-01-26T11:34:47.142Z,11.15
2018-01-26T11:37:14.633Z,10.15
2018-01-26T11:39:42.184Z,10.40
2018-01-26T11:42:09.686Z,10.73
2018-01-26T11:44:37.987Z,10.75
2018-01-26T11:47:05.507Z,11.05
2018-01-26T11:49:33.793Z,9.90
2018-01-26T11:52:02.073Z,9.68
2018-01-26T11:54:30.366Z,9.45
2018-01-26T11:56:57.897Z,11.77
2018-01-26T11:59:26.212Z,11.80
2018-01-26T12:01:53.725Z,10.98
2018-01-26T12:04:21.241Z,11.45
2018-01-26T12:06:48.771Z,10.65
2018-01-26T12:09:16.265Z,11.48
2018-01-26T12:11:43.819Z,10.35
2018-01-26T12:14:11.334Z,11.63
2018-01-26T12:16:38.891Z,10.57
2018-01-26T12:19:07.165Z,10.73
2018-01-26T12:21:34.677Z,10.70
2018-01-26T12:24:02.487Z,9.57
2018-01-26T12:26:30.332Z,10.75
2018-01-26T12:28:58.139Z,10.43
2018-01-26T12:31:26.732Z,9.80
2018-01-26T12:33:54.580Z,10.48
2018-01-26T12:36:22.957Z,10.73
2018-01-26T12:38:50.487Z,10.48
2018-01-26T12:41:18.002Z,10.98
2018-01-26T12:43:45.531Z,10.82
2018-01-26T12:46:13.852Z,10.68
2018-01-26T12:48:41.416Z,10.88
2018-01-26T12:51:08.985Z,10.05
2018-01-26T12:53:36.586Z,10.38
2018-01-26T12:56:04.172Z,10.65
2018-01-26T12:58:31.765Z,10.80
2018-01-26T13:00:59.325Z,9.52
2018-01-26T13:03:26.905Z,10.32
2018-01-26T13:05:54.466Z,9.85
2018-01-26T13:08:22.048Z,9.98
2018-01-26T13:10:49.605Z,9.95
2018-01-26T13:13:17.159Z,9.38
2018-01-26T13:15:44.713Z,9.60
2018-01-26T13:18:12.240Z,9.30
2018-01-26T13:20:39.792Z,10.68
2018-01-26T13:23:07.361Z,9.65
2018-01-26T13:25:34.924Z,9.77
2018-01-26T13:28:02.484Z,10.63
2018-01-26T13:30:30.057Z,10.45
2018-01-26T13:32:57.604Z,11.20
2018-01-26T13:35:25.195Z,10.88
2018-01-26T13:37:52.785Z,11.15
2018-01-26T13:40:21.116Z,11.15
2018-01-26T13:42:48.630Z,9.52
2018-01-26T13:45:16.923Z,10.30
2018-01-26T13:47:44.445Z,10.63
2018-01-26T13:50:12.782Z,11.27
2018-01-26T13:52:41.069Z,11.80
2018-01-26T13:55:08.602Z,11.12
2018-01-26T13:57:36.901Z,10.68
2018-01-26T14:00:04.434Z,10.63
2018-01-26T14:02:31.999Z,11.38
2018-01-26T14:04:59.526Z,9.45
2018-01-26T14:07:27.798Z,11.38
2018-01-26T14:09:56.066Z,10.95
2018-01-26T14:12:23.594Z,11.35
2018-01-26T14:14:51.102Z,11.00
2018-01-26T14:17:19.385Z,10.55
2018-01-26T14:19:47.694Z,10.70
2018-01-26T14:22:15.215Z,10.93
2018-01-26T14:24:43.499Z,11.25
2018-01-26T14:27:11.026Z,10.65
2018-01-26T14:29:38.543Z,10.73
2018-01-26T14:32:06.075Z,11.52
2018-01-26T14:34:33.623Z,11.45
2018-01-26T14:37:01.149Z,11.95
2018-01-26T14:39:28.666Z,11.40
2018-01-26T14:41:56.193Z,12.05
2018-01-26T14:44:24.489Z,11.98
2018-01-26T14:46:52.791Z,12.25
2018-01-26T14:49:20.466Z,10.93
2018-01-26T14:51:48.003Z,11.38
2018-01-26T14:54:16.455Z,12.60
2018-01-26T14:56:44.009Z,12.37
2018-01-26T14:59:11.531Z,12.35
2018-01-26T15:01:39.059Z,12.00
2018-01-26T15:04:07.337Z,11.95
2018-01-26T15:06:35.667Z,13.23
2018-01-26T15:09:03.222Z,12.75
2018-01-26T15:11:30.733Z,11.77
2018-01-26T15:13:58.277Z,13.25
2018-01-26T15:16:25.811Z,12.63
2018-01-26T15:18:53.346Z,12.27
2018-01-26T15:21:20.869Z,13.65
2018-01-26T15:23:49.199Z,13.32
2018-01-26T15:26:16.710Z,12.48
2018-01-26T15:28:45.030Z,12.85
2018-01-26T15:31:12.587Z,12.27
2018-01-26T15:33:40.176Z,13.05
2018-01-26T15:36:07.694Z,13.18
2018-01-26T15:38:35.202Z,12.50
2018-01-26T15:41:02.722Z,13.80
2018-01-26T15:43:31.313Z,12.50
2018-01-26T15:45:59.184Z,14.85
2018-01-26T15:48:27.021Z,12.57
2018-01-26T15:50:54.605Z,13.45
2018-01-26T15:53:22.158Z,13.70
2018-01-26T15:55:49.826Z,14.10
2018-01-26T15:58:17.389Z,12.82
2018-01-26T16:00:44.938Z,13.13
2018-01-26T16:03:12.441Z,12.60
2018-01-26T16:05:39.965Z,13.35
2018-01-26T16:08:07.522Z,13.90
2018-01-26T16:10:35.125Z,13.05
2018-01-26T16:13:02.679Z,12.88
2018-01-26T16:15:30.245Z,13.65
2018-01-26T16:17:57.782Z,12.73
2018-01-26T16:20:25.357Z,12.40
2018-01-26T16:22:52.909Z,13.13
2018-01-26T16:25:20.427Z,12.85
2018-01-26T16:27:48.032Z,12.93
2018-01-26T16:30:15.630Z,13.57
2018-01-26T16:32:43.971Z,13.50
2018-01-26T16:35:11.485Z,13.95
2018-01-26T16:37:39.002Z,13.95
2018-01-26T16:40:09.073Z,13.05
2018-01-26T16:42:38.532Z,13.50
2018-01-26T16:45:06.216Z,12.73
2018-01-26T16:47:34.585Z,14.15
2018-01-26T16:50:02.107Z,14.25
2018-01-26T16:52:29.697Z,12.90
2018-01-26T16:54:57.221Z,13.00
2018-01-26T16:57:24.801Z,12.37
2018-01-26T16:59:52.399Z,12.85
2018-01-26T17:02:20.752Z,13.27
2018-01-26T17:04:48.580Z,14.13
2018-01-26T17:07:16.156Z,13.95
2018-01-26T17:09:43.674Z,13.85
2018-01-26T17:12:11.201Z,13.45
2018-01-26T17:14:38.756Z,13.90
2018-01-26T17:17:06.297Z,13.75
2018-01-26T17:19:33.834Z,12.70
2018-01-26T17:22:01.410Z,13.15
2018-01-26T17:24:28.911Z,14.02
2018-01-26T17:26:57.187Z,14.73
2018-01-26T17:29:25.522Z,13.35
2018-01-26T17:31:53.023Z,16.37
2018-01-26T17:34:21.356Z,17.15
2018-01-26T17:36:48.861Z,15.77
2018-01-26T17:39:17.132Z,17.15
2018-01-26T17:41:45.454Z,14.73
2018-01-26T17:44:13.017Z,16.62
2018-01-26T17:46:40.514Z,16.10
2018-01-26T17:49:08.032Z,15.50
2018-01-26T17:51:36.304Z,15.15
2018-01-26T17:54:03.831Z,14.80
2018-01-26T17:56:32.105Z,15.27
2018-01-26T17:59:00.389Z,14.65
2018-01-26T18:01:28.707Z,14.85
2018-01-26T18:03:56.285Z,16.50
2018-01-26T18:06:23.789Z,15.50
2018-01-26T18:08:52.066Z,15.50
2018-01-26T18:11:20.404Z,14.25
2018-01-26T18:13:47.972Z,14.40
2018-01-26T18:16:15.541Z,15.30
2018-01-26T18:18:43.046Z,16.37
2018-01-26T18:21:10.569Z,16.23
2018-01-26T18:23:38.898Z,16.80
2018-01-26T18:26:07.220Z,16.75
2018-01-26T18:28:35.548Z,16.75
2018-01-26T18:31:03.090Z,16.73
2018-01-26T18:33:30.663Z,17.95
2018-01-26T18:35:58.239Z,16.35
2018-01-26T18:38:25.835Z,15.35
2018-01-26T18:40:53.397Z,16.17
2018-01-26T18:43:20.906Z,15.65
2018-01-26T18:45:48.451Z,15.68
2018-01-26T18:48:16.017Z,14.25
2018-01-26T18:50:43.584Z,15.80
2018-01-26T18:53:11.145Z,15.75
2018-01-26T18:55:38.682Z,15.68
2018-01-26T18:58:06.233Z,17.00
2018-01-26T19:00:34.530Z,16.70
2018-01-26T19:03:02.047Z,16.37
2018-01-26T19:05:29.602Z,17.87
2018-01-26T19:07:57.171Z,16.50
2018-01-26T19:10:24.744Z,17.77
2018-01-26T19:12:53.088Z,17.45
2018-01-26T19:15:20.607Z,19.23
2018-01-26T19:17:48.250Z,17.80
2018-01-26T19:20:16.522Z,18.12
2018-01-26T19:22:44.856Z,17.50
2018-01-26T19:25:12.432Z,18.65
2018-01-26T19:27:40.030Z,19.90
2018-01-26T19:30:08.396Z,16.75
2018-01-26T19:32:36.748Z,19.35
2018-01-26T19:35:04.250Z,18.20
2018-01-26T19:37:31.834Z,17.45
2018-01-26T19:39:59.341Z,19.55
2018-01-26T19:42:26.938Z,18.30
2018-01-26T19:44:54.448Z,19.98
2018-01-26T19:47:22.021Z,17.95
2018-01-26T19:49:49.577Z,18.17
2018-01-26T19:52:17.097Z,19.23
2018-01-26T19:54:44.664Z,18.60
2018-01-26T19:57:12.224Z,19.87
2018-01-26T19:59:39.793Z,18.95
2018-01-26T20:02:08.297Z,20.33
2018-01-26T20:04:41.418Z,19.05
2018-01-26T20:07:33.328Z,21.50
2018-01-26T20:10:00.889Z,19.90
2018-01-26T20:15:30.185Z,20.17
2018-01-26T20:17:57.742Z,20.52
2018-01-26T20:20:25.302Z,20.42
2018-01-26T20:22:52.906Z,20.05
2018-01-26T20:25:21.245Z,19.77
2018-01-26T20:27:48.813Z,21.15
2018-01-26T20:30:16.400Z,19.37
2018-01-26T20:32:43.913Z,19.62
2018-01-26T20:35:11.555Z,19.83
2018-01-26T20:37:39.157Z,20.60
2018-01-26T20:40:06.738Z,20.65
2018-01-26T20:42:35.013Z,19.87
2018-01-26T20:45:02.609Z,19.70
2018-01-26T20:47:30.160Z,21.40
2018-01-26T20:49:57.761Z,20.92
2018-01-26T20:52:25.337Z,21.58
2018-01-26T20:54:52.929Z,21.30
2018-01-26T20:57:21.244Z,20.88
2018-01-26T20:59:48.823Z,22.62
2018-01-26T21:02:16.406Z,21.10
2018-01-26T21:04:43.977Z,21.33
2018-01-26T21:07:11.524Z,21.58
2018-01-26T21:09:39.090Z,22.15
2018-01-26T21:12:06.641Z,21.27
2018-01-26T21:14:34.207Z,22.55
2018-01-26T21:17:01.725Z,20.85
2018-01-26T21:19:29.279Z,23.15
2018-01-26T21:21:56.843Z,20.80
2018-01-26T21:24:24.415Z,22.48
2018-01-26T21:26:52.057Z,21.25
2018-01-26T21:29:19.608Z,21.60
2018-01-26T21:31:47.188Z,19.92
2018-01-26T21:34:14.681Z,20.20
2018-01-26T21:36:42.214Z,21.15
2018-01-26T21:39:09.734Z,19.90
2018-01-26T21:41:38.088Z,19.92
2018-01-26T21:44:06.391Z,19.42
2018-01-26T21:46:34.724Z,18.73
2018-01-26T21:49:02.286Z,20.23
2018-01-26T21:51:29.809Z,18.95
2018-01-26T21:53:57.377Z,19.65
2018-01-26T21:56:24.953Z,17.65
2018-01-26T21:58:52.510Z,17.33
2018-01-26T22:01:20.044Z,17.67
2018-01-26T22:03:47.554Z,18.58
2018-01-26T22:06:20.877Z,19.48
2018-01-26T22:08:49.202Z,18.58
2018-01-26T22:11:16.773Z,19.25
2018-01-26T22:13:44.316Z,18.27
2018-01-26T22:16:11.914Z,16.12
2018-01-26T22:18:40.239Z,17.20
2018-01-26T22:21:07.793Z,17.50
2018-01-26T22:23:35.349Z,16.40
2018-01-26T22:26:02.922Z,17.08
2018-01-26T22:28:30.433Z,16.45
2018-01-26T22:30:58.018Z,16.10
2018-01-26T22:33:25.536Z,17.60
2018-01-26T22:35:53.096Z,18.37
2018-01-26T22:38:20.619Z,17.08
2018-01-26T22:40:48.151Z,17.83
2018-01-26T22:43:16.470Z,17.10
2018-01-26T22:45:44.048Z,18.50
2018-01-26T22:48:11.604Z,17.10
2018-01-26T22:50:39.223Z,17.85
2018-01-26T22:53:06.793Z,17.42
2018-01-26T22:55:34.363Z,17.73
2018-01-26T22:58:01.946Z,18.20
2018-01-26T23:00:29.451Z,17.73
2018-01-26T23:02:57.789Z,17.00
2018-01-26T23:05:25.349Z,18.60
2018-01-26T23:07:52.878Z,16.48
2018-01-26T23:10:20.453Z,17.23
2018-01-26T23:12:47.978Z,18.20
2018-01-26T23:15:16.306Z,18.17
2018-01-26T23:17:43.817Z,16.40
2018-01-26T23:20:11.373Z,17.23
2018-01-26T23:22:39.675Z,17.55
2018-01-26T23:25:07.233Z,16.58
2018-01-26T23:27:34.764Z,17.52
2018-01-26T23:30:03.104Z,19.30
2018-01-26T23:32:30.622Z,18.60
2018-01-26T23:34:58.141Z,18.08
2018-01-26T23:37:25.691Z,16.10
2018-01-26T23:39:53.260Z,16.98
2018-01-26T23:42:20.811Z,18.12
2018-01-26T23:44:48.355Z,17.55
2018-01-26T23:47:15.874Z,16.00
2018-01-26T23:49:43.396Z,16.85
2018-01-26T23:52:10.955Z,18.15
2018-01-26T23:54:38.491Z,16.70
2018-01-26T23:57:06.014Z,16.98
2018-01-26T23:59:33.525Z,17.65
